Time;durP1;ratioP1;P1;durP2;ratioP2;P2;SDS_P1;SDS_P2;PMS_P1;PMS_P2;Temp;Humidity;BMP_temperature;BMP_pressure;BME280_temperature;BME280_humidity;BME280_pressure;Samples;Min_cycle;Max_cycle;Signal;HPM_P1;HPM_P2
2021/11/18 00:01:46;;;;;;;0.95;0.95;;;7.50;99.90;;;;;;5025265;28;20048;-82
2021/11/18 00:04:12;;;;;;;5.28;1.88;;;7.40;99.90;;;;;;5054769;28;20111;-81
2021/11/18 00:06:37;;;;;;;6.03;2.03;;;7.40;99.90;;;;;;5016296;28;20088;-80
2021/11/18 00:09:04;;;;;;;2.67;1.17;;;7.30;99.90;;;;;;5013443;28;20123;-81
2021/11/18 00:11:29;;;;;;;;;;;7.40;99.90;;;;;;5044603;28;20032;-80
2021/11/18 00:13:56;;;;;;;3.25;1.17;;;7.40;99.90;;;;;;5052934;28;19921;-80
2021/11/18 00:16:22;;;;;;;0.63;0.63;;;7.30;99.90;;;;;;5036430;28;20063;-81
2021/11/18 00:18:48;;;;;;;1.98;1.55;;;7.20;99.90;;;;;;5038511;28;20032;-81
2021/11/18 00:21:22;;;;;;;;;;;7.20;99.90;;;;;;5039259;28;20044;-80
2021/11/18 00:23:54;;;;;;;1.48;1.38;;;7.20;99.90;;;;;;5040231;28;20329;-82
2021/11/18 00:26:21;;;;;;;7.13;1.25;;;7.20;99.90;;;;;;5057790;28;20521;-81
2021/11/18 00:28:48;;;;;;;1.88;1.25;;;7.20;99.90;;;;;;5040364;28;20119;-82
2021/11/18 00:31:16;;;;;;;1.67;1.58;;;7.10;99.90;;;;;;5057024;28;20044;-82
2021/11/18 00:33:43;;;;;;;1.45;1.40;;;7.10;99.90;;;;;;5032406;28;20043;-82
2021/11/18 00:36:09;;;;;;;0.98;0.98;;;7.10;99.90;;;;;;5056206;28;20045;-82
2021/11/18 00:38:36;;;;;;;4.68;1.45;;;7.10;99.90;;;;;;5059715;28;20115;-81
2021/11/18 00:41:03;;;;;;;8.23;1.40;;;7.10;99.90;;;;;;5036961;28;20494;-80
2021/11/18 00:43:29;;;;;;;3.97;1.50;;;7.10;99.90;;;;;;5045837;28;20036;-82
2021/11/18 00:45:55;;;;;;;0.80;0.80;;;7.10;99.90;;;;;;5056587;28;20039;-80
2021/11/18 00:48:22;;;;;;;2.00;1.48;;;7.10;99.90;;;;;;5046318;28;20042;-82
2021/11/18 00:50:52;;;;;;;6.28;1.92;;;7.10;99.90;;;;;;5047750;28;20047;-82
2021/11/18 00:53:19;;;;;;;2.30;1.65;;;7.10;99.90;;;;;;5048011;28;20040;-80
2021/11/18 00:55:45;;;;;;;11.40;1.65;;;7.10;99.90;;;;;;5060565;28;20037;-80
2021/11/18 00:58:11;;;;;;;1.92;1.67;;;7.30;99.90;;;;;;5053507;28;20032;-80
2021/11/18 01:00:39;;;;;;;1.98;1.33;;;7.30;99.90;;;;;;5048636;28;20388;-82
2021/11/18 01:03:05;;;;;;;9.15;2.75;;;7.40;99.90;;;;;;5068474;28;20036;-82
2021/11/18 01:05:38;;;;;;;1.65;1.35;;;7.50;99.90;;;;;;5055261;28;20053;-81
2021/11/18 01:08:06;;;;;;;6.88;2.58;;;7.50;99.90;;;;;;5037181;28;20421;-83
2021/11/18 01:10:46;;;;;;;11.02;1.83;;;7.50;99.90;;;;;;5057116;28;20048;-80
2021/11/18 01:13:12;;;;;;;3.60;1.50;;;7.50;99.90;;;;;;5055017;28;20044;-82
2021/11/18 01:15:39;;;;;;;;;;;7.60;99.90;;;;;;5035083;28;20044;-81
2021/11/18 01:18:06;;;;;;;;;;;7.60;99.90;;;;;;5052939;28;19970;-82
2021/11/18 01:20:33;;;;;;;0.98;0.90;;;7.70;99.90;;;;;;5038767;28;19927;-81
2021/11/18 01:23:01;;;;;;;3.65;1.83;;;7.80;99.90;;;;;;5038559;28;20526;-81
2021/11/18 01:25:28;;;;;;;1.52;1.25;;;7.80;99.90;;;;;;5054693;28;20048;-82
2021/11/18 01:27:54;;;;;;;2.38;1.55;;;7.80;99.90;;;;;;5038611;28;20482;-81
2021/11/18 01:30:24;;;;;;;;;;;7.80;99.90;;;;;;5038437;28;20048;-80
2021/11/18 01:32:50;;;;;;;2.65;1.50;;;7.80;99.90;;;;;;5036879;28;20316;-82
2021/11/18 01:35:17;;;;;;;1.13;0.95;;;7.80;99.90;;;;;;5020035;28;20036;-81
2021/11/18 01:37:43;;;;;;;3.65;1.67;;;7.90;99.90;;;;;;5055286;28;20060;-79
2021/11/18 01:40:10;;;;;;;;;;;7.80;99.90;;;;;;5037173;28;20123;-81
2021/11/18 01:42:37;;;;;;;1.25;1.02;;;7.90;99.90;;;;;;5042873;28;19966;-81
2021/11/18 01:45:04;;;;;;;2.08;1.40;;;7.90;99.90;;;;;;5053768;28;20424;-79
2021/11/18 01:47:30;;;;;;;2.33;1.52;;;7.90;99.90;;;;;;5054124;28;20048;-81
2021/11/18 01:49:57;;;;;;;1.38;1.27;;;7.90;99.90;;;;;;5037217;28;20129;-82
2021/11/18 01:52:27;;;;;;;4.10;1.70;;;7.90;99.90;;;;;;5053038;28;20044;-81
2021/11/18 01:54:53;;;;;;;5.03;2.00;;;7.80;99.90;;;;;;5038868;28;20051;-80
2021/11/18 01:57:25;;;;;;;1.42;1.33;;;7.90;99.90;;;;;;5052839;28;20081;-81
2021/11/18 01:59:52;;;;;;;1.42;1.33;;;7.90;99.90;;;;;;5054804;28;20106;-80
2021/11/18 02:02:20;;;;;;;1.88;1.27;;;7.90;99.90;;;;;;5051053;28;20044;-80
2021/11/18 02:04:50;;;;;;;9.60;2.05;;;7.80;99.90;;;;;;5053474;28;20037;-81
2021/11/18 02:07:16;;;;;;;3.90;2.45;;;7.80;99.90;;;;;;5066126;28;20084;-80
2021/11/18 02:09:45;;;;;;;1.00;1.00;;;7.80;99.90;;;;;;5023030;28;20052;-81
2021/11/18 02:12:22;;;;;;;1.83;1.30;;;7.90;99.90;;;;;;5052946;28;20507;-79
2021/11/18 02:14:47;;;;;;;8.77;2.20;;;7.90;99.90;;;;;;5053349;28;20400;-81
2021/11/18 02:17:15;;;;;;;11.73;1.88;;;8.00;99.90;;;;;;5038644;28;20044;-79
2021/11/18 02:19:45;;;;;;;7.07;3.05;;;7.90;99.90;;;;;;5047321;28;20170;-81
2021/11/18 02:22:12;;;;;;;2.50;1.45;;;7.90;99.90;;;;;;5058063;28;20451;-79
2021/11/18 02:24:42;;;;;;;2.63;1.20;;;7.90;99.90;;;;;;5039706;28;20044;-80
2021/11/18 02:27:15;;;;;;;3.25;1.27;;;7.90;99.90;;;;;;5064289;28;20076;-80
2021/11/18 02:29:43;;;;;;;1.10;1.05;;;7.90;99.90;;;;;;5056309;28;20044;-80
2021/11/18 02:32:11;;;;;;;4.78;1.65;;;7.90;99.90;;;;;;5035804;28;20060;-81
2021/11/18 02:34:49;;;;;;;3.92;2.05;;;7.90;99.90;;;;;;5052354;28;20104;-82
2021/11/18 02:37:15;;;;;;;2.13;1.92;;;7.90;99.90;;;;;;5037478;28;20079;-81
2021/11/18 02:39:41;;;;;;;8.90;1.80;;;7.90;99.90;;;;;;5028960;28;20040;-80
2021/11/18 02:42:10;;;;;;;8.65;1.85;;;8.00;99.90;;;;;;5033034;28;20059;-79
2021/11/18 02:44:37;;;;;;;1.67;1.58;;;8.00;99.90;;;;;;5041020;28;20067;-81
2021/11/18 02:47:06;;;;;;;9.65;1.67;;;8.00;99.90;;;;;;5056622;28;20040;-82
2021/11/18 02:49:33;;;;;;;3.25;2.17;;;8.00;99.90;;;;;;5048622;28;20048;-82
2021/11/18 02:51:59;;;;;;;1.60;1.48;;;8.00;99.90;;;;;;5057308;28;20059;-82
2021/11/18 02:54:25;;;;;;;2.13;1.73;;;8.00;99.90;;;;;;5023096;28;20040;-81
2021/11/18 02:56:52;;;;;;;8.07;1.92;;;8.00;99.90;;;;;;5040602;28;20033;-81
2021/11/18 02:59:19;;;;;;;6.03;2.75;;;8.10;99.90;;;;;;5032652;28;20037;-79
2021/11/18 03:01:48;;;;;;;1.88;1.45;;;8.10;99.90;;;;;;5031484;28;20029;-79
2021/11/18 03:04:15;;;;;;;4.88;2.00;;;8.10;99.90;;;;;;5024661;28;20098;-82
2021/11/18 03:06:43;;;;;;;2.88;1.30;;;8.20;99.90;;;;;;5058382;28;20060;-80
2021/11/18 03:09:09;;;;;;;9.48;2.90;;;8.30;99.90;;;;;;5056334;28;20044;-81
2021/11/18 03:11:36;;;;;;;9.90;2.35;;;8.30;99.90;;;;;;5056238;28;20071;-80
2021/11/18 03:14:02;;;;;;;3.03;2.65;;;8.30;99.90;;;;;;5040170;28;20173;-82
2021/11/18 03:16:27;;;;;;;;;;;8.40;99.90;;;;;;5057446;28;20076;-80
2021/11/18 03:18:53;;;;;;;7.28;2.08;;;8.50;99.90;;;;;;5055953;28;19962;-83
2021/11/18 03:21:23;;;;;;;2.03;1.52;;;8.50;99.90;;;;;;5058281;28;20040;-81
2021/11/18 03:23:51;;;;;;;3.22;2.08;;;8.50;99.90;;;;;;5058021;28;20119;-79
2021/11/18 03:26:20;;;;;;;5.68;2.03;;;8.40;99.90;;;;;;5058927;28;20173;-80
2021/11/18 03:28:46;;;;;;;2.65;2.10;;;8.30;99.90;;;;;;5049519;28;20045;-78
2021/11/18 03:31:13;;;;;;;3.20;1.60;;;8.30;99.90;;;;;;5060439;28;20041;-78
2021/11/18 03:33:46;;;;;;;2.03;1.65;;;8.20;99.90;;;;;;5057251;28;20044;-81
2021/11/18 03:36:13;;;;;;;4.90;2.40;;;8.20;99.90;;;;;;5055868;28;20474;-82
2021/11/18 03:38:40;;;;;;;12.10;2.42;;;8.20;99.90;;;;;;5057507;28;20079;-80
2021/11/18 03:41:07;;;;;;;8.13;1.83;;;8.80;99.90;;;;;;5047603;28;20121;-81
2021/11/18 03:43:36;;;;;;;1.52;1.05;;;8.20;99.90;;;;;;5055278;28;20113;-80
2021/11/18 03:46:03;;;;;;;7.72;2.60;;;8.20;99.90;;;;;;5055648;28;20048;-81
2021/11/18 03:48:33;;;;;;;2.70;1.27;;;8.20;99.90;;;;;;5045710;28;20070;-80
2021/11/18 03:51:00;;;;;;;10.05;2.55;;;8.20;99.90;;;;;;5060289;28;20084;-83
2021/11/18 03:53:26;;;;;;;5.20;1.88;;;8.30;99.90;;;;;;5054683;28;20072;-81
2021/11/18 03:55:52;;;;;;;10.80;2.03;;;8.30;99.90;;;;;;5055252;28;20369;-82
2021/11/18 03:58:18;;;;;;;15.55;3.20;;;8.40;99.90;;;;;;5055920;28;20044;-80
2021/11/18 04:00:44;;;;;;;10.98;2.72;;;8.40;99.90;;;;;;5055821;28;20045;-81
2021/11/18 04:03:12;;;;;;;1.52;1.42;;;8.50;99.90;;;;;;5055557;28;20072;-79
2021/11/18 04:05:40;;;;;;;5.05;2.17;;;8.50;99.90;;;;;;5056165;28;20087;-79
2021/11/18 04:08:08;;;;;;;1.85;1.58;;;8.50;99.90;;;;;;5056992;28;20056;-80
2021/11/18 04:10:36;;;;;;;10.90;2.33;;;8.50;99.90;;;;;;5047610;28;20040;-79
2021/11/18 04:13:03;;;;;;;2.40;2.00;;;8.50;99.90;;;;;;5058663;28;20052;-78
2021/11/18 04:15:30;;;;;;;9.93;2.67;;;8.50;99.90;;;;;;5039008;28;20094;-79
2021/11/18 04:17:56;;;;;;;11.85;1.92;;;8.50;99.90;;;;;;5055613;28;20051;-79
2021/11/18 04:20:22;;;;;;;;;;;8.50;99.90;;;;;;5053844;28;20048;-79
2021/11/18 04:22:50;;;;;;;2.17;1.38;;;8.50;99.90;;;;;;5068551;28;19916;-79
2021/11/18 04:25:26;;;;;;;2.85;1.58;;;8.60;99.90;;;;;;5057758;28;20044;-78
2021/11/18 04:27:52;;;;;;;2.60;1.73;;;8.60;99.90;;;;;;5039523;28;20538;-82
2021/11/18 04:30:23;;;;;;;2.45;2.05;;;8.70;99.90;;;;;;5055114;28;20036;-80
2021/11/18 04:32:49;;;;;;;2.47;1.73;;;8.60;99.90;;;;;;5053799;28;20078;-80
2021/11/18 04:35:16;;;;;;;1.75;1.50;;;8.60;99.90;;;;;;5054660;28;20040;-80
2021/11/18 04:37:42;;;;;;;5.63;2.25;;;8.60;99.90;;;;;;5036032;28;20045;-80
2021/11/18 04:40:09;;;;;;;3.95;2.80;;;8.60;99.90;;;;;;5051877;28;20078;-80
2021/11/18 04:42:35;;;;;;;3.13;2.08;;;8.60;99.90;;;;;;5038311;28;20063;-79
2021/11/18 04:45:01;;;;;;;4.43;1.60;;;8.50;99.90;;;;;;5046394;28;20487;-79
2021/11/18 04:47:26;;;;;;;8.52;2.88;;;8.50;99.90;;;;;;5063180;28;20052;-82
2021/11/18 04:49:52;;;;;;;2.00;1.30;;;8.50;99.90;;;;;;5064137;28;20070;-82
2021/11/18 04:52:18;;;;;;;2.85;1.98;;;8.50;99.90;;;;;;5049757;28;20496;-79
2021/11/18 04:54:45;;;;;;;1.42;1.33;;;8.60;99.90;;;;;;5066308;28;20040;-79
2021/11/18 04:57:11;;;;;;;4.40;2.80;;;8.50;99.90;;;;;;5071500;28;20126;-81
2021/11/18 04:59:37;;;;;;;7.40;2.88;;;8.60;99.90;;;;;;5062281;28;20389;-82
2021/11/18 05:02:04;;;;;;;5.18;1.65;;;8.50;99.90;;;;;;5055619;28;20040;-82
2021/11/18 05:04:29;;;;;;;3.10;1.75;;;8.50;99.90;;;;;;5066060;28;20106;-79
2021/11/18 05:06:55;;;;;;;10.38;1.40;;;8.50;99.90;;;;;;5054892;28;20061;-80
2021/11/18 05:09:21;;;;;;;22.90;3.92;;;8.60;99.90;;;;;;5033143;28;20259;-81
2021/11/18 05:11:47;;;;;;;1.40;1.10;;;8.60;99.90;;;;;;5054644;28;20033;-80
2021/11/18 05:14:12;;;;;;;4.70;1.92;;;8.50;99.90;;;;;;5056308;28;20473;-81
2021/11/18 05:16:39;;;;;;;2.90;1.27;;;8.60;99.90;;;;;;5036951;28;20134;-80
2021/11/18 05:19:05;;;;;;;1.83;1.73;;;8.50;99.90;;;;;;5058951;28;20044;-83
2021/11/18 05:21:32;;;;;;;4.63;2.40;;;8.60;99.90;;;;;;5046988;28;20041;-84
2021/11/18 05:24:01;;;;;;;4.50;0.93;;;8.50;99.90;;;;;;5057456;28;20111;-81
2021/11/18 05:26:29;;;;;;;9.57;2.63;;;8.50;99.90;;;;;;5056954;28;20055;-83
2021/11/18 05:28:55;;;;;;;4.35;1.67;;;8.50;99.90;;;;;;5063113;28;20044;-80
2021/11/18 05:31:22;;;;;;;;;;;8.50;99.90;;;;;;5059476;28;20106;-82
2021/11/18 05:33:49;;;;;;;7.30;1.98;;;8.50;99.90;;;;;;5037992;28;19943;-82
2021/11/18 05:36:17;;;;;;;2.45;1.17;;;8.50;99.90;;;;;;5061636;28;20046;-81
2021/11/18 05:38:43;;;;;;;8.00;1.73;;;8.50;99.90;;;;;;5080687;28;20051;-82
2021/11/18 05:41:12;;;;;;;5.53;2.00;;;8.50;99.90;;;;;;5059175;28;20513;-78
2021/11/18 05:43:40;;;;;;;8.30;1.65;;;8.50;99.90;;;;;;5055941;28;20044;-79
2021/11/18 05:46:07;;;;;;;4.15;2.05;;;8.50;99.90;;;;;;5049669;28;20036;-81
2021/11/18 05:48:33;;;;;;;3.10;1.98;;;8.50;99.90;;;;;;5053292;28;20044;-81
2021/11/18 05:51:00;;;;;;;7.53;2.47;;;8.50;99.90;;;;;;5066421;28;20040;-79
2021/11/18 05:53:33;;;;;;;4.65;2.13;;;8.40;99.90;;;;;;5054173;28;20047;-81
2021/11/18 05:56:02;;;;;;;5.10;2.67;;;8.40;99.90;;;;;;5059240;28;20430;-80
2021/11/18 05:58:28;;;;;;;4.30;1.63;;;8.50;99.90;;;;;;5061420;28;20470;-81
2021/11/18 06:00:53;;;;;;;10.98;2.80;;;8.40;99.90;;;;;;5058996;28;20119;-81
2021/11/18 06:03:19;;;;;;;5.82;2.22;;;8.50;99.90;;;;;;5059456;28;20489;-82
2021/11/18 06:05:45;;;;;;;1.75;1.13;;;8.30;99.90;;;;;;5053466;28;20075;-83
2021/11/18 06:08:11;;;;;;;8.35;1.67;;;8.30;99.90;;;;;;5064727;28;20057;-80
2021/11/18 06:10:38;;;;;;;2.22;1.50;;;8.30;99.90;;;;;;5036915;28;20040;-80
2021/11/18 06:13:05;;;;;;;1.80;1.70;;;8.40;99.90;;;;;;5053525;28;20144;-81
2021/11/18 06:15:31;;;;;;;2.85;1.65;;;8.30;99.90;;;;;;5052808;28;20441;-79
2021/11/18 06:17:57;;;;;;;1.55;1.45;;;8.30;99.90;;;;;;5053808;28;20107;-79
2021/11/18 06:20:24;;;;;;;6.45;2.00;;;8.30;99.90;;;;;;5036663;28;20045;-81
2021/11/18 06:22:50;;;;;;;7.47;1.70;;;8.30;99.90;;;;;;5062907;28;20068;-81
2021/11/18 06:25:19;;;;;;;4.97;2.10;;;8.30;99.90;;;;;;5062504;28;20044;-81
2021/11/18 06:27:47;;;;;;;7.18;1.73;;;8.30;99.90;;;;;;5053514;28;20504;-82
2021/11/18 06:30:23;;;;;;;2.63;1.30;;;8.40;99.90;;;;;;5057468;28;20044;-81
2021/11/18 06:32:49;;;;;;;4.88;2.17;;;8.40;99.90;;;;;;5060618;28;20043;-80
2021/11/18 06:35:16;;;;;;;11.38;3.25;;;8.40;99.90;;;;;;5057687;28;20087;-81
2021/11/18 06:37:42;;;;;;;2.20;2.00;;;8.40;99.90;;;;;;5042026;28;20048;-79
2021/11/18 06:40:09;;;;;;;;;;;8.40;99.90;;;;;;5046286;28;20040;-80
2021/11/18 06:42:34;;;;;;;11.03;1.70;;;8.50;99.90;;;;;;5068486;28;20055;-81
2021/11/18 06:45:00;;;;;;;9.27;1.73;;;8.50;99.90;;;;;;5062961;28;20095;-81
2021/11/18 06:47:26;;;;;;;3.85;1.92;;;8.50;99.90;;;;;;5040971;28;20045;-79
2021/11/18 06:49:53;;;;;;;3.45;1.50;;;8.50;99.90;;;;;;5061255;28;20374;-81
2021/11/18 06:52:19;;;;;;;2.00;1.75;;;8.50;99.90;;;;;;5062388;28;20055;-81
2021/11/18 06:54:49;;;;;;;4.32;2.20;;;8.50;99.90;;;;;;5074812;28;20381;-81
2021/11/18 06:57:15;;;;;;;1.48;1.38;;;8.50;99.90;;;;;;5062244;28;20032;-81
2021/11/18 06:59:40;;;;;;;6.20;2.08;;;8.50;99.90;;;;;;5063011;28;20529;-79
2021/11/18 07:02:06;;;;;;;1.17;1.08;;;8.50;99.90;;;;;;5060860;28;20045;-79
2021/11/18 07:04:32;;;;;;;2.28;1.88;;;8.50;99.90;;;;;;5065171;28;20049;-81
2021/11/18 07:06:58;;;;;;;5.28;2.30;;;8.40;99.90;;;;;;5057454;28;20047;-78
2021/11/18 07:09:24;;;;;;;2.80;1.20;;;8.40;99.90;;;;;;5062520;28;20442;-80
2021/11/18 07:11:49;;;;;;;11.07;2.65;;;8.40;99.90;;;;;;5040545;28;20055;-79
2021/11/18 07:14:15;;;;;;;6.85;2.88;;;8.40;99.90;;;;;;5041750;28;20052;-80
2021/11/18 07:16:41;;;;;;;8.45;2.03;;;8.40;99.90;;;;;;5063868;28;20047;-81
2021/11/18 07:19:07;;;;;;;2.58;1.90;;;8.40;99.90;;;;;;5056615;28;20032;-81
2021/11/18 07:21:35;;;;;;;2.30;1.50;;;8.40;99.90;;;;;;5062411;28;20040;-81
2021/11/18 07:24:03;;;;;;;5.05;2.10;;;8.40;99.90;;;;;;5064066;28;20166;-80
2021/11/18 07:26:31;;;;;;;1.40;1.30;;;8.40;99.90;;;;;;5047022;28;20056;-80
2021/11/18 07:28:57;;;;;;;1.85;1.38;;;8.40;99.90;;;;;;5059664;28;20220;-81
2021/11/18 07:31:23;;;;;;;2.00;1.60;;;8.40;99.90;;;;;;5056793;28;20044;-81
2021/11/18 07:33:49;;;;;;;4.75;2.75;;;8.40;99.90;;;;;;5064626;28;20040;-81
2021/11/18 07:36:14;;;;;;;2.75;1.85;;;8.40;99.90;;;;;;5066957;28;20064;-80
2021/11/18 07:38:41;;;;;;;1.15;1.05;;;8.40;99.90;;;;;;5061398;28;20085;-80
2021/11/18 07:41:08;;;;;;;2.33;1.85;;;8.40;99.90;;;;;;5055007;28;20044;-81
2021/11/18 07:43:38;;;;;;;8.18;2.90;;;8.40;99.90;;;;;;5062422;28;20052;-80
2021/11/18 07:46:05;;;;;;;5.40;1.55;;;8.40;99.90;;;;;;5060850;28;20168;-80
2021/11/18 07:48:31;;;;;;;5.13;1.95;;;8.40;99.90;;;;;;5047559;28;20051;-82
2021/11/18 07:50:59;;;;;;;10.55;3.15;;;8.50;99.90;;;;;;5059410;28;20127;-81
2021/11/18 07:53:25;;;;;;;1.80;1.35;;;8.50;99.90;;;;;;5070552;28;20106;-80
2021/11/18 07:55:51;;;;;;;4.15;1.85;;;8.50;99.90;;;;;;5057981;28;20053;-81
2021/11/18 07:58:17;;;;;;;;;;;8.50;99.90;;;;;;5056983;28;20150;-81
2021/11/18 08:00:45;;;;;;;12.40;2.53;;;8.50;99.90;;;;;;5052879;28;20385;-80
2021/11/18 08:03:13;;;;;;;3.13;1.88;;;8.50;99.90;;;;;;5056546;28;20032;-80
2021/11/18 08:05:39;;;;;;;12.43;2.75;;;8.60;99.90;;;;;;5056248;28;20041;-82
2021/11/18 08:08:05;;;;;;;;;;;8.50;99.90;;;;;;5041167;28;20056;-80
2021/11/18 08:10:31;;;;;;;7.63;2.13;;;8.60;99.90;;;;;;5056706;28;19977;-81
2021/11/18 08:12:57;;;;;;;1.88;1.70;;;8.60;99.90;;;;;;5045406;28;20036;-80
2021/11/18 08:15:23;;;;;;;4.47;1.38;;;8.60;99.90;;;;;;5049467;28;20048;-80
2021/11/18 08:17:51;;;;;;;2.55;2.00;;;8.60;99.90;;;;;;5060748;28;20036;-80
2021/11/18 08:20:17;;;;;;;1.02;0.90;;;8.60;99.90;;;;;;5064514;28;20064;-79
2021/11/18 08:22:44;;;;;;;10.77;1.67;;;8.60;99.90;;;;;;5060624;28;20048;-81
2021/11/18 08:25:10;;;;;;;;;;;8.60;99.90;;;;;;5061544;28;20048;-80
2021/11/18 08:27:38;;;;;;;2.40;1.33;;;8.60;99.90;;;;;;5039001;28;19963;-80
2021/11/18 08:30:08;;;;;;;2.05;0.95;;;8.60;99.90;;;;;;5027491;28;20067;-80
2021/11/18 08:32:35;;;;;;;4.78;2.47;;;8.80;99.90;;;;;;5059047;28;20486;-81
2021/11/18 08:35:01;;;;;;;7.85;2.22;;;8.80;99.90;;;;;;5055964;28;20049;-80
2021/11/18 08:37:26;;;;;;;6.20;2.47;;;8.90;99.90;;;;;;5055949;28;20040;-81
2021/11/18 08:39:53;;;;;;;3.67;1.67;;;9.00;99.90;;;;;;5057049;28;20044;-82
2021/11/18 08:42:21;;;;;;;;;;;9.10;99.90;;;;;;5045786;28;20041;-81
2021/11/18 08:44:47;;;;;;;4.70;1.88;;;9.10;99.90;;;;;;5040118;28;20389;-82
2021/11/18 08:47:13;;;;;;;2.88;1.42;;;9.10;99.90;;;;;;5055615;28;20101;-80
2021/11/18 08:49:40;;;;;;;5.28;2.08;;;9.20;99.90;;;;;;5059631;28;20127;-80
2021/11/18 08:52:09;;;;;;;2.97;1.42;;;9.20;99.90;;;;;;5041196;28;20083;-80
2021/11/18 08:54:37;;;;;;;16.75;2.63;;;9.20;99.90;;;;;;5060749;28;20056;-80
2021/11/18 08:57:04;;;;;;;10.90;2.42;;;9.20;99.90;;;;;;5060341;28;20044;-81
2021/11/18 08:59:30;;;;;;;7.88;2.33;;;9.20;99.90;;;;;;5047222;28;20102;-80
2021/11/18 09:02:00;;;;;;;2.15;1.65;;;9.20;99.90;;;;;;5033020;28;20044;-81
2021/11/18 09:04:26;;;;;;;4.75;1.50;;;9.20;99.90;;;;;;5056698;28;20056;-81
2021/11/18 09:06:53;;;;;;;2.72;1.50;;;9.20;99.90;;;;;;5044740;28;20053;-82
2021/11/18 09:09:24;;;;;;;1.50;1.40;;;9.20;99.90;;;;;;5047427;28;20048;-80
2021/11/18 09:11:54;;;;;;;5.60;1.60;;;9.20;99.90;;;;;;5066274;28;20048;-81
2021/11/18 09:14:21;;;;;;;3.65;2.33;;;9.20;99.90;;;;;;5058851;28;20501;-79
2021/11/18 09:16:49;;;;;;;5.63;1.60;;;9.20;99.90;;;;;;5052144;28;20090;-81
2021/11/18 09:19:22;;;;;;;3.95;2.15;;;9.20;99.90;;;;;;5065739;28;20044;-82
2021/11/18 09:21:49;;;;;;;3.47;1.55;;;9.20;99.90;;;;;;5057913;28;20482;-80
2021/11/18 09:24:29;;;;;;;1.33;1.15;;;9.20;99.90;;;;;;5060888;28;20040;-80
2021/11/18 09:27:00;;;;;;;2.90;2.17;;;9.20;99.90;;;;;;5069173;28;20036;-80
2021/11/18 09:29:26;;;;;;;4.45;1.75;;;9.10;99.90;;;;;;5061161;28;20044;-80
2021/11/18 09:31:54;;;;;;;2.70;1.50;;;9.20;99.90;;;;;;5047455;28;20885;-78
2021/11/18 09:34:20;;;;;;;5.50;1.40;;;9.20;99.90;;;;;;5067570;28;20086;-81
2021/11/18 09:36:47;;;;;;;3.28;1.85;;;9.30;99.90;;;;;;5072638;28;20044;-80
2021/11/18 09:39:12;;;;;;;4.32;2.55;;;9.40;99.90;;;;;;5047759;28;20041;-80
2021/11/18 09:41:45;;;;;;;10.18;1.77;;;9.40;99.90;;;;;;5042548;28;20032;-79
2021/11/18 09:44:32;;;;;;;4.25;1.80;;;9.50;99.90;;;;;;5065177;28;20402;-81
2021/11/18 09:47:13;;;;;;;2.75;1.98;;;9.50;99.90;;;;;;5055571;28;20163;-81
2021/11/18 09:49:59;;;;;;;7.90;2.30;;;9.60;99.90;;;;;;5039763;28;20497;-81
2021/11/18 09:53:01;;;;;;;16.20;2.08;;;9.60;99.90;;;;;;5061216;28;20040;-81
2021/11/18 09:55:43;;;;;;;4.65;1.33;;;9.70;99.90;;;;;;5059900;28;20123;-80
2021/11/18 09:58:47;;;;;;;5.22;2.42;;;9.80;99.90;;;;;;5068674;28;20068;-79
2021/11/18 10:01:28;;;;;;;2.33;2.13;;;9.90;99.90;;;;;;4992770;28;20482;-80
2021/11/18 10:03:55;;;;;;;5.22;2.28;;;10.00;99.90;;;;;;5038047;28;20155;-81
2021/11/18 10:06:30;;;;;;;6.88;1.60;;;10.10;99.90;;;;;;5043387;28;20517;-79
2021/11/18 10:09:18;;;;;;;11.07;1.33;;;10.30;99.90;;;;;;5053853;28;20063;-80
2021/11/18 10:12:09;;;;;;;4.32;1.50;;;10.20;99.90;;;;;;5048170;28;20468;-79
2021/11/18 10:14:47;;;;;;;5.30;1.70;;;10.30;99.90;;;;;;5044055;28;20033;-81
2021/11/18 10:17:19;;;;;;;2.95;1.73;;;10.40;99.90;;;;;;5054222;28;20040;-79
2021/11/18 10:19:55;;;;;;;7.90;1.60;;;10.50;99.90;;;;;;5053700;28;20076;-82
2021/11/18 10:22:24;;;;;;;5.97;1.48;;;10.60;99.90;;;;;;5069583;28;20048;-81
2021/11/18 10:24:53;;;;;;;1.88;1.20;;;10.70;99.90;;;;;;5058805;28;20074;-78
2021/11/18 10:27:42;;;;;;;4.13;2.05;;;10.80;99.90;;;;;;5058154;28;20048;-80
2021/11/18 10:30:11;;;;;;;7.13;2.35;;;10.90;99.90;;;;;;5058633;28;20048;-78
2021/11/18 10:32:51;;;;;;;3.50;1.90;;;10.90;99.90;;;;;;5041373;28;20064;-81
2021/11/18 10:35:55;;;;;;;12.13;2.35;;;10.90;99.90;;;;;;5061235;28;20482;-82
2021/11/18 10:38:26;;;;;;;9.75;3.05;;;10.90;99.90;;;;;;5030761;28;20052;-81
2021/11/18 10:41:03;;;;;;;8.00;1.70;;;11.00;99.90;;;;;;5040246;28;20477;-82
2021/11/18 10:43:36;;;;;;;13.43;1.90;;;11.00;99.90;;;;;;5059050;28;20390;-80
2021/11/18 10:46:26;;;;;;;6.90;2.35;;;11.10;99.90;;;;;;5071472;28;20036;-80
2021/11/18 10:49:28;;;;;;;3.17;1.23;;;11.10;99.90;;;;;;5056595;28;20048;-81
2021/11/18 10:51:56;;;;;;;1.23;1.10;;;11.10;99.90;;;;;;5056712;28;20048;-80
2021/11/18 10:54:46;;;;;;;3.13;1.52;;;11.30;99.90;;;;;;5075696;28;20044;-79
2021/11/18 10:57:22;;;;;;;8.98;1.00;;;11.40;99.90;;;;;;5052191;28;20091;-80
2021/11/18 10:59:52;;;;;;;3.08;1.73;;;11.40;99.90;;;;;;5060191;28;20047;-81
2021/11/18 11:02:33;;;;;;;5.20;1.30;;;11.40;99.90;;;;;;5046079;28;20036;-81
2021/11/18 11:05:20;;;;;;;13.10;2.45;;;11.40;99.90;;;;;;5061732;28;20130;-80
2021/11/18 11:07:48;;;;;;;3.15;1.58;;;11.50;99.90;;;;;;5057049;28;20113;-79
2021/11/18 11:10:16;;;;;;;10.23;1.75;;;11.40;99.90;;;;;;5073883;28;20036;-80
2021/11/18 11:13:00;;;;;;;3.85;1.80;;;11.50;99.90;;;;;;5074077;28;20044;-80
2021/11/18 11:15:51;;;;;;;7.13;1.83;;;11.40;99.90;;;;;;5054321;28;20427;-80
2021/11/18 11:18:32;;;;;;;2.30;1.25;;;11.50;99.90;;;;;;5043601;28;20112;-80
2021/11/18 11:21:25;;;;;;;3.05;2.35;;;11.60;99.90;;;;;;5057156;28;20094;-80
2021/11/18 11:24:19;;;;;;;1.40;1.30;;;11.60;99.90;;;;;;5057946;28;20040;-80
2021/11/18 11:26:56;;;;;;;5.85;1.83;;;11.70;99.90;;;;;;5051922;28;20056;-80
2021/11/18 11:29:31;;;;;;;1.48;1.20;;;11.90;99.90;;;;;;5059765;28;20044;-80
2021/11/18 11:32:10;;;;;;;6.35;2.28;;;11.90;99.90;;;;;;5038198;28;20087;-80
2021/11/18 11:34:46;;;;;;;5.65;1.33;;;12.10;99.90;;;;;;5068093;28;20166;-80
2021/11/18 11:37:12;;;;;;;1.75;1.17;;;12.00;99.90;;;;;;5038733;28;20048;-82
2021/11/18 11:39:43;;;;;;;6.55;1.48;;;12.10;99.90;;;;;;5071684;28;20079;-80
2021/11/18 11:42:24;;;;;;;2.70;1.48;;;12.10;99.90;;;;;;5060443;28;20052;-81
2021/11/18 11:44:53;;;;;;;5.47;1.08;;;12.20;99.90;;;;;;5062303;28;20047;-80
2021/11/18 11:48:05;;;;;;;5.05;2.10;;;12.10;99.90;;;;;;5072911;28;20032;-82
2021/11/18 11:50:51;;;;;;;4.82;2.08;;;12.10;99.90;;;;;;5030133;28;20045;-79
2021/11/18 11:53:51;;;;;;;7.43;1.83;;;12.10;99.90;;;;;;5057965;28;20473;-80
2021/11/18 11:56:30;;;;;;;8.90;2.13;;;12.10;99.90;;;;;;5019399;28;20059;-81
2021/11/18 11:59:03;;;;;;;10.43;1.73;;;12.10;99.90;;;;;;5055762;28;20051;-79
2021/11/18 12:01:47;;;;;;;1.98;1.50;;;12.10;99.90;;;;;;5049479;28;20426;-79
2021/11/18 12:04:27;;;;;;;1.90;1.20;;;12.10;99.90;;;;;;5046942;28;20044;-79
2021/11/18 12:07:05;;;;;;;4.88;1.73;;;12.00;99.90;;;;;;5060318;28;20079;-80
2021/11/18 12:09:48;;;;;;;6.43;2.67;;;12.10;99.90;;;;;;5055323;28;20076;-82
2021/11/18 12:12:44;;;;;;;6.00;1.60;;;12.00;99.90;;;;;;5061351;28;20048;-79
2021/11/18 12:15:13;;;;;;;4.30;1.88;;;12.00;99.90;;;;;;5054615;28;20048;-78
2021/11/18 12:17:50;;;;;;;2.40;1.45;;;12.00;99.90;;;;;;5037944;28;20417;-79
2021/11/18 12:20:23;;;;;;;4.05;1.85;;;11.90;99.90;;;;;;5056918;28;20437;-81
2021/11/18 12:22:55;;;;;;;4.13;1.65;;;11.80;99.90;;;;;;5054352;28;20044;-79
2021/11/18 12:25:36;;;;;;;4.30;1.48;;;11.90;99.90;;;;;;5055524;28;20052;-80
2021/11/18 12:28:07;;;;;;;2.20;2.03;;;11.90;99.90;;;;;;5055666;28;20097;-81
2021/11/18 12:31:03;;;;;;;1.55;1.35;;;11.80;99.90;;;;;;5060545;28;20040;-80
2021/11/18 12:33:32;;;;;;;3.88;1.63;;;11.80;99.90;;;;;;5056069;28;20102;-81
2021/11/18 12:36:12;;;;;;;7.28;1.33;;;11.80;99.90;;;;;;5032331;28;20393;-82
2021/11/18 12:38:44;;;;;;;5.07;2.20;;;11.80;99.90;;;;;;5062605;28;20028;-81
2021/11/18 12:41:17;;;;;;;2.75;1.33;;;11.90;99.90;;;;;;5058646;28;20041;-81
2021/11/18 12:44:18;;;;;;;7.30;2.25;;;11.80;99.90;;;;;;5063248;28;20078;-79
2021/11/18 12:47:07;;;;;;;6.38;1.73;;;11.80;99.90;;;;;;4982819;28;20042;-79
2021/11/18 12:49:51;;;;;;;11.00;2.05;;;11.80;99.90;;;;;;5047257;28;20143;-81
2021/11/18 12:52:20;;;;;;;5.28;1.77;;;11.70;99.90;;;;;;5051720;28;20481;-83
2021/11/18 12:55:05;;;;;;;5.10;1.60;;;11.70;99.90;;;;;;5070270;28;20068;-83
2021/11/18 12:57:41;;;;;;;5.00;1.98;;;11.60;99.90;;;;;;5034933;28;20133;-81
2021/11/18 13:00:09;;;;;;;3.28;2.05;;;11.60;99.90;;;;;;5045986;28;20103;-79
2021/11/18 13:02:38;;;;;;;4.38;1.85;;;11.50;99.90;;;;;;5042338;28;20044;-81
2021/11/18 13:05:24;;;;;;;10.48;1.77;;;11.50;99.90;;;;;;5068620;28;20052;-79
2021/11/18 13:07:58;;;;;;;10.13;1.63;;;11.50;99.90;;;;;;5059801;28;20056;-81
2021/11/18 13:10:26;;;;;;;8.52;2.35;;;11.50;99.90;;;;;;5054864;28;20092;-81
2021/11/18 13:12:58;;;;;;;3.08;1.42;;;11.50;99.90;;;;;;5044721;28;20056;-81
2021/11/18 13:15:44;;;;;;;4.43;1.80;;;11.50;99.90;;;;;;5057792;28;20045;-82